createdAt,value
2018-06-20T00:00:26.423Z,2.67
2018-06-20T00:02:54.463Z,2.70
2018-06-20T00:05:22.491Z,2.93
2018-06-20T00:07:50.510Z,3.10
2018-06-20T00:10:18.538Z,3.37
2018-06-20T00:12:46.563Z,2.90
2018-06-20T00:15:14.590Z,2.90
2018-06-20T00:17:42.403Z,2.97
2018-06-20T00:20:10.422Z,3.13
2018-06-20T00:22:38.442Z,3.77
2018-06-20T00:25:06.470Z,3.63
2018-06-20T00:27:34.490Z,3.43
2018-06-20T00:30:02.498Z,3.70
2018-06-20T00:32:30.532Z,3.80
2018-06-20T00:34:58.581Z,3.27
2018-06-20T00:37:26.602Z,3.67
2018-06-20T00:39:54.651Z,3.60
2018-06-20T00:42:22.666Z,3.37
2018-06-20T00:44:50.686Z,3.40
2018-06-20T00:47:18.736Z,3.33
2018-06-20T00:49:46.749Z,3.30
2018-06-20T00:52:14.794Z,3.17
2018-06-20T00:54:42.807Z,3.23
2018-06-20T00:57:10.823Z,2.97
2018-06-20T00:59:38.634Z,3.43
2018-06-20T01:02:06.663Z,3.27
2018-06-20T01:04:34.683Z,3.27
2018-06-20T01:07:02.703Z,2.90
2018-06-20T01:09:30.722Z,3.53
2018-06-20T01:11:58.915Z,3.07
2018-06-20T01:14:26.774Z,3.80
2018-06-20T01:16:54.830Z,3.83
2018-06-20T01:19:22.854Z,3.80
2018-06-20T01:21:50.870Z,3.60
2018-06-20T01:24:18.890Z,3.77
2018-06-20T01:26:46.946Z,3.60
2018-06-20T01:29:14.941Z,3.90
2018-06-20T01:31:42.977Z,3.53
2018-06-20T01:34:11.011Z,4.30
2018-06-20T01:36:39.018Z,3.80
2018-06-20T01:39:09.050Z,4.07
2018-06-20T01:41:37.062Z,4.07
2018-06-20T01:44:05.114Z,3.90
2018-06-20T01:46:33.131Z,4.07
2018-06-20T01:49:01.190Z,4.20
2018-06-20T01:51:29.210Z,4.20
2018-06-20T01:53:57.239Z,4.30
2018-06-20T01:56:25.048Z,4.00
2018-06-20T01:58:53.078Z,3.80
2018-06-20T02:01:21.104Z,3.97
2018-06-20T02:03:49.134Z,3.77
2018-06-20T02:06:17.154Z,4.47
2018-06-20T02:08:45.194Z,3.57
2018-06-20T02:11:13.218Z,4.00
2018-06-20T02:13:41.262Z,3.80
2018-06-20T02:16:09.315Z,3.87
2018-06-20T02:18:37.367Z,4.20
2018-06-20T02:21:05.546Z,4.17
2018-06-20T02:23:33.566Z,4.00
2018-06-20T02:26:01.763Z,4.57
2018-06-20T02:28:29.794Z,3.83
2018-06-20T02:30:57.821Z,3.97
2018-06-20T02:33:25.838Z,4.30
2018-06-20T02:35:53.646Z,3.43
2018-06-20T02:38:21.679Z,3.40
2018-06-20T02:40:49.702Z,3.87
2018-06-20T02:43:17.751Z,4.13
2018-06-20T02:45:45.771Z,3.63
2018-06-20T02:48:13.815Z,3.27
2018-06-20T02:50:41.852Z,3.80
2018-06-20T02:53:09.891Z,3.63
2018-06-20T02:55:37.911Z,3.57
2018-06-20T02:58:05.932Z,3.27
2018-06-20T03:00:33.964Z,3.20
2018-06-20T03:03:02.008Z,3.23
2018-06-20T03:05:30.063Z,3.80
2018-06-20T03:07:58.091Z,3.33
2018-06-20T03:10:26.111Z,3.80
2018-06-20T03:12:54.137Z,3.60
2018-06-20T03:15:22.166Z,4.13
2018-06-20T03:17:49.981Z,4.50
2018-06-20T03:20:18.002Z,4.17
2018-06-20T03:22:46.022Z,4.60
2018-06-20T03:25:14.034Z,4.60
2018-06-20T03:27:42.078Z,4.50
2018-06-20T03:30:10.103Z,4.33
2018-06-20T03:32:38.122Z,5.20
2018-06-20T03:35:06.138Z,5.17
2018-06-20T03:37:34.162Z,4.80
2018-06-20T03:40:01.971Z,4.43
2018-06-20T03:42:30.000Z,4.20
2018-06-20T03:44:58.030Z,4.80
2018-06-20T03:47:26.038Z,4.50
2018-06-20T03:49:54.082Z,4.30
2018-06-20T03:52:22.123Z,4.40
2018-06-20T03:54:50.149Z,4.30
2018-06-20T03:57:18.198Z,4.77
2018-06-20T03:59:46.002Z,4.30
2018-06-20T04:02:14.045Z,4.30
2018-06-20T04:04:42.072Z,5.10
2018-06-20T04:07:09.886Z,4.87
2018-06-20T04:09:37.917Z,4.87
2018-06-20T04:12:05.971Z,5.07
2018-06-20T04:14:34.047Z,4.67
2018-06-20T04:17:02.046Z,4.87
2018-06-20T04:19:29.870Z,5.07
2018-06-20T04:21:57.899Z,5.13
2018-06-20T04:24:25.914Z,5.30
2018-06-20T04:26:53.949Z,4.80
2018-06-20T04:29:21.769Z,4.80
2018-06-20T04:31:49.786Z,5.33
2018-06-20T04:34:17.807Z,5.10
2018-06-20T04:36:45.835Z,4.93
2018-06-20T04:39:13.851Z,5.13
2018-06-20T04:41:41.894Z,4.93
2018-06-20T04:44:10.502Z,5.00
2018-06-20T04:46:38.515Z,5.10
2018-06-20T04:49:06.566Z,5.47
2018-06-20T04:51:34.586Z,5.17
2018-06-20T04:54:03.407Z,5.80
2018-06-20T04:56:31.478Z,5.87
2018-06-20T04:58:59.489Z,5.70
2018-06-20T05:01:27.511Z,6.23
2018-06-20T05:03:55.526Z,6.10
2018-06-20T05:06:23.574Z,5.97
2018-06-20T05:08:51.602Z,6.17
2018-06-20T05:11:19.622Z,5.83
2018-06-20T05:13:47.658Z,5.70
2018-06-20T05:16:15.686Z,6.03
2018-06-20T05:18:43.714Z,5.53
2018-06-20T05:21:11.737Z,5.90
2018-06-20T05:23:39.769Z,5.63
2018-06-20T05:26:07.807Z,6.10
2018-06-20T05:28:35.625Z,5.80
2018-06-20T05:31:03.662Z,5.63
2018-06-20T05:33:31.670Z,6.03
2018-06-20T05:35:59.686Z,5.57
2018-06-20T05:38:27.698Z,5.30
2018-06-20T05:40:55.715Z,5.37
2018-06-20T05:43:23.730Z,4.70
2018-06-20T05:45:51.740Z,4.37
2018-06-20T05:48:19.811Z,4.70
2018-06-20T05:50:47.622Z,5.10
2018-06-20T05:53:15.645Z,5.80
2018-06-20T05:55:43.670Z,5.50
2018-06-20T05:58:11.711Z,5.57
2018-06-20T06:00:39.714Z,5.30
2018-06-20T06:03:07.721Z,6.40
2018-06-20T06:05:35.742Z,5.45
2018-06-20T06:08:10.246Z,5.40
2018-06-20T06:10:38.270Z,4.90
2018-06-20T06:15:33.679Z,5.43
2018-06-20T06:18:01.702Z,4.70
2018-06-20T06:20:29.515Z,4.70
2018-06-20T06:22:57.614Z,4.93
2018-06-20T06:25:25.618Z,4.90
2018-06-20T06:27:53.644Z,4.40
2018-06-20T06:30:21.670Z,5.20
2018-06-20T06:32:49.704Z,4.27
2018-06-20T06:35:17.724Z,3.70
2018-06-20T06:37:45.779Z,3.80
2018-06-20T06:40:13.769Z,3.40
2018-06-20T06:45:09.179Z,3.77
2018-06-20T06:47:37.196Z,4.00
2018-06-20T06:50:05.265Z,3.60
2018-06-20T06:52:33.238Z,3.70
2018-06-20T06:55:01.259Z,4.03
2018-06-20T06:57:29.291Z,3.60
2018-06-20T06:59:57.315Z,4.63
2018-06-20T07:02:25.334Z,3.97
2018-06-20T07:04:53.370Z,3.67
2018-06-20T07:07:21.399Z,3.57
2018-06-20T07:09:49.450Z,4.03
2018-06-20T07:12:17.513Z,3.60
2018-06-20T07:14:45.534Z,3.93
2018-06-20T07:17:13.573Z,3.90
2018-06-20T07:19:41.607Z,3.70
2018-06-20T07:22:09.647Z,3.93
2018-06-20T07:24:37.748Z,4.00
2018-06-20T07:27:05.477Z,3.43
2018-06-20T07:29:33.523Z,3.70
2018-06-20T07:32:01.550Z,3.97
2018-06-20T07:34:29.668Z,3.60
2018-06-20T07:36:57.619Z,4.00
2018-06-20T07:39:25.646Z,3.60
2018-06-20T07:41:53.694Z,3.80
2018-06-20T07:44:21.714Z,3.70
2018-06-20T07:46:49.744Z,3.77
2018-06-20T07:49:17.775Z,4.30
2018-06-20T07:51:45.827Z,3.77
2018-06-20T07:54:13.858Z,3.20
2018-06-20T07:56:41.883Z,3.23
2018-06-20T07:59:14.199Z,3.10
2018-06-20T08:01:59.406Z,3.60
2018-06-20T08:04:32.903Z,3.20
2018-06-20T08:07:06.459Z,3.83
2018-06-20T08:09:39.798Z,3.90
2018-06-20T08:12:13.266Z,3.65
2018-06-20T08:14:46.774Z,3.60
2018-06-20T08:19:49.598Z,4.23
2018-06-20T08:22:19.834Z,3.80
2018-06-20T08:25:00.682Z,3.80
2018-06-20T08:27:29.369Z,3.72
2018-06-20T08:59:26.011Z,3.10
2018-06-20T09:01:54.036Z,2.90
2018-06-20T09:04:27.589Z,3.00
2018-06-20T09:09:34.167Z,3.15
2018-06-20T09:13:10.551Z,2.57
2018-06-20T09:23:12.200Z,2.30
2018-06-20T09:47:46.564Z,1.40
2018-06-20T09:52:47.326Z,1.70
2018-06-20T09:55:15.358Z,1.50
2018-06-20T09:57:43.378Z,1.52
2018-06-20T10:00:16.914Z,1.90
2018-06-20T10:02:50.440Z,1.80
2018-06-20T10:05:23.947Z,1.50
2018-06-20T10:07:57.542Z,2.10
2018-06-20T10:10:30.958Z,2.00
2018-06-20T10:15:31.824Z,1.70
2018-06-20T10:17:59.835Z,1.80
2018-06-20T10:22:57.986Z,1.45
2018-06-20T10:52:36.731Z,1.60
2018-06-20T11:11:19.654Z,1.80
2018-06-20T11:16:15.380Z,1.45
2018-06-20T11:18:46.143Z,1.50
2018-06-20T11:23:41.559Z,1.70
2018-06-20T11:26:09.579Z,1.98
2018-06-20T11:28:37.594Z,1.50
2018-06-20T11:36:00.163Z,1.70
2018-06-20T11:38:28.210Z,1.50
2018-06-20T11:40:56.230Z,1.25
2018-06-20T11:43:24.271Z,1.80
2018-06-20T11:48:25.074Z,1.70
2018-06-20T11:55:47.737Z,1.60
2018-06-20T11:58:21.240Z,1.70
2018-06-20T12:00:54.729Z,1.60
2018-06-20T12:06:01.132Z,1.45
2018-06-20T12:13:40.655Z,1.60
2018-06-20T12:21:19.766Z,1.40
2018-06-20T12:23:53.245Z,1.35
2018-06-20T12:26:26.843Z,1.40
2018-06-20T12:29:00.291Z,1.43
2018-06-20T12:31:33.706Z,1.30
2018-06-20T12:34:07.339Z,1.50
2018-06-20T12:36:40.905Z,1.60
2018-06-20T12:41:41.108Z,1.42
2018-06-20T12:44:14.498Z,1.20
2018-06-20T12:47:47.022Z,1.37
2018-06-20T12:50:23.566Z,1.42
2018-06-20T12:52:51.783Z,1.20
2018-06-20T12:57:47.246Z,1.40
2018-06-20T13:05:10.394Z,1.10
2018-06-20T13:07:38.426Z,1.12
2018-06-20T13:12:34.186Z,1.47
2018-06-20T13:17:29.834Z,1.55
2018-06-20T13:22:25.340Z,1.30
2018-06-20T13:24:53.590Z,1.45
2018-06-20T13:32:32.999Z,1.60
2018-06-20T13:35:06.481Z,1.45
2018-06-20T13:37:39.922Z,1.30
2018-06-20T13:40:13.307Z,1.20
2018-06-20T13:42:46.637Z,1.10
2018-06-20T14:00:10.022Z,1.10
2018-06-20T14:02:38.047Z,0.80
2018-06-20T14:14:55.633Z,1.00
2018-06-20T14:24:51.043Z,1.10
2018-06-20T14:29:46.507Z,0.93
2018-06-20T14:34:53.011Z,1.30
2018-06-20T15:17:06.719Z,1.25
2018-06-20T15:19:34.734Z,1.02
2018-06-20T15:22:02.783Z,1.00
2018-06-20T15:38:16.117Z,1.20
2018-06-20T15:40:44.397Z,1.35
2018-06-20T15:55:29.933Z,1.07
2018-06-20T15:57:58.006Z,1.02
2018-06-20T16:00:26.044Z,1.00
2018-06-20T16:02:54.050Z,0.90
2018-06-20T16:10:18.570Z,1.02
2018-06-20T16:15:14.167Z,1.10
2018-06-20T16:17:42.211Z,1.10
2018-06-20T16:22:48.751Z,1.10
2018-06-20T16:25:22.330Z,1.22
2018-06-20T16:27:56.031Z,1.20
2018-06-20T16:50:15.118Z,1.20
2018-06-20T17:52:19.074Z,1.10
2018-06-20T18:09:48.416Z,1.10
2018-06-20T18:12:22.143Z,1.10
2018-06-20T18:14:55.702Z,1.00
2018-06-20T18:17:23.742Z,1.12
2018-06-20T18:19:51.758Z,1.70
2018-06-20T18:22:19.807Z,1.50
2018-06-20T18:24:47.839Z,1.25
2018-06-20T18:27:15.864Z,1.50
2018-06-20T18:29:44.042Z,1.20
2018-06-20T18:32:12.127Z,1.05
2018-06-20T18:34:40.161Z,1.10
2018-06-20T18:37:08.207Z,1.40
2018-06-20T18:44:36.453Z,2.30
2018-06-20T18:47:04.670Z,1.75
2018-06-20T18:54:27.277Z,2.87
2018-06-20T19:02:01.315Z,2.40
2018-06-20T19:04:34.812Z,2.05
2018-06-20T19:07:08.371Z,1.52
2018-06-20T19:09:36.418Z,1.72
2018-06-20T19:12:04.490Z,1.50
2018-06-20T19:14:32.516Z,4.97
2018-06-20T19:17:00.537Z,3.20
2018-06-20T19:19:28.602Z,2.25
2018-06-20T19:21:56.631Z,2.12
2018-06-20T19:24:24.614Z,1.90
2018-06-20T19:26:52.642Z,3.02
2018-06-20T19:29:20.706Z,1.92
2018-06-20T19:31:48.778Z,2.15
2018-06-20T19:34:16.835Z,2.10
2018-06-20T19:36:44.854Z,2.30
2018-06-20T19:39:18.518Z,2.12
2018-06-20T19:41:46.649Z,1.80
2018-06-20T19:44:20.275Z,2.00
2018-06-20T19:46:48.322Z,1.90
2018-06-20T19:49:16.378Z,2.05
2018-06-20T19:51:44.463Z,2.33
2018-06-20T19:54:12.447Z,1.98
2018-06-20T19:56:40.476Z,2.40
2018-06-20T19:59:08.638Z,1.85
2018-06-20T20:01:36.682Z,2.20
2018-06-20T20:04:04.831Z,2.10
2018-06-20T20:06:32.907Z,2.42
2018-06-20T20:09:00.713Z,2.08
2018-06-20T20:11:28.771Z,2.33
2018-06-20T20:13:56.810Z,2.60
2018-06-20T20:16:24.882Z,2.72
2018-06-20T20:18:52.935Z,2.85
2018-06-20T20:21:20.996Z,2.80
2018-06-20T20:23:48.820Z,2.42
2018-06-20T20:26:16.963Z,2.72
2018-06-20T20:28:45.023Z,2.90
2018-06-20T20:31:13.099Z,2.30
2018-06-20T20:33:41.255Z,2.50
2018-06-20T20:36:09.396Z,2.67
2018-06-20T20:38:37.614Z,2.33
2018-06-20T20:41:05.730Z,2.58
2018-06-20T20:43:33.786Z,2.70
2018-06-20T20:46:01.894Z,2.87
2018-06-20T21:00:46.865Z,2.90
2018-06-20T21:03:14.882Z,2.60
2018-06-20T21:05:42.920Z,2.22
2018-06-20T21:08:10.942Z,2.45
2018-06-20T21:10:38.967Z,2.58
2018-06-20T21:13:07.003Z,3.05
2018-06-20T21:15:35.030Z,2.67
2018-06-20T21:18:03.038Z,2.42
2018-06-20T21:20:31.058Z,2.50
2018-06-20T21:22:59.087Z,2.80
2018-06-20T21:25:27.270Z,2.25
2018-06-20T21:27:55.304Z,2.25
2018-06-20T21:30:23.334Z,2.50
2018-06-20T21:32:51.388Z,2.75
2018-06-20T21:35:19.391Z,2.15
2018-06-20T21:37:47.431Z,2.60
2018-06-20T21:40:15.470Z,2.62
2018-06-20T21:42:43.502Z,2.52
2018-06-20T21:45:11.514Z,2.67
2018-06-20T21:47:39.534Z,2.58
2018-06-20T21:50:07.616Z,2.90
2018-06-20T21:52:35.642Z,2.72
2018-06-20T21:55:03.676Z,2.70
2018-06-20T21:57:31.690Z,2.62
2018-06-20T21:59:59.709Z,2.87
2018-06-20T22:02:27.738Z,2.70
2018-06-20T22:04:55.635Z,2.75
2018-06-20T22:07:23.654Z,2.73
2018-06-20T22:09:51.706Z,2.80
2018-06-20T22:12:19.718Z,2.72
2018-06-20T22:14:47.745Z,2.90
2018-06-20T22:17:15.766Z,2.83
2018-06-20T22:19:43.581Z,2.52
2018-06-20T22:22:11.591Z,2.87
2018-06-20T22:24:39.619Z,2.90
2018-06-20T22:27:07.642Z,3.20
2018-06-20T22:29:35.678Z,2.87
2018-06-20T22:32:03.721Z,2.97
2018-06-20T22:34:31.537Z,3.00
2018-06-20T22:36:59.551Z,3.07
2018-06-20T22:39:27.570Z,2.73
2018-06-20T22:41:55.602Z,3.20
2018-06-20T22:44:23.622Z,3.33
2018-06-20T22:46:51.643Z,2.87
2018-06-20T22:49:19.672Z,3.13
2018-06-20T22:51:47.703Z,3.13
2018-06-20T22:54:15.726Z,2.87
2018-06-20T22:56:43.754Z,3.40
2018-06-20T22:59:11.613Z,3.00
2018-06-20T23:01:39.647Z,3.73
2018-06-20T23:04:07.694Z,3.80
2018-06-20T23:06:35.824Z,3.73
2018-06-20T23:09:06.576Z,2.83
2018-06-20T23:11:40.031Z,3.13
2018-06-20T23:14:08.059Z,3.73
2018-06-20T23:16:36.147Z,3.00
2018-06-20T23:19:04.365Z,3.17
2018-06-20T23:21:32.548Z,2.87
2018-06-20T23:24:00.801Z,3.13
2018-06-20T23:26:28.979Z,3.17
2018-06-20T23:28:57.302Z,3.27
2018-06-20T23:31:25.521Z,3.30
2018-06-20T23:33:53.970Z,3.40
2018-06-20T23:36:22.236Z,3.83
2018-06-20T23:38:50.246Z,3.63
2018-06-20T23:41:18.299Z,3.40
2018-06-20T23:43:46.345Z,3.33
2018-06-20T23:46:14.541Z,3.27
2018-06-20T23:48:42.707Z,3.00
2018-06-20T23:51:10.738Z,3.30
2018-06-20T23:53:38.919Z,3.37
2018-06-20T23:56:06.969Z,3.20
2018-06-20T23:58:34.972Z,3.17
